Terminal Aerodrome Forecast
Issued by NWS

Home | Current Version | Previous Version | Text Only | Print | Product List | Glossary On
Versions: 1 2 3 4 5 6 7 8 9 10 11 12 13 14 15 16 17 18 19 20 21 22 23 24 25 26 27 28 29 30 31 32 33 34
000
FTUS45 KLKN 050006 AAA
TAFELY
TAF AMD
KELY 050006Z 0500/0524 23014G22KT P6SM BKN120 OVC200
     FM050300 20006KT P6SM VCSH BKN040 OVC060
     FM050900 21008KT P6SM SCT040 SCT060 OVC150
     FM051800 28010G18KT P6SM SCT060 BKN150=

USA.gov is the U.S. government's official web portal to all federal, state and local government web resources and services.